createdAt,value
2018-12-24T00:00:09.601Z,99870.78
2018-12-24T00:02:56.417Z,99877.63
2018-12-24T00:05:29.172Z,99881.99
2018-12-24T00:08:05.850Z,99882.06
2018-12-24T00:10:44.021Z,99886.98
2018-12-24T00:13:21.685Z,99890.31
2018-12-24T00:16:02.285Z,99893.05
2018-12-24T00:18:58.670Z,99877.34
2018-12-24T00:21:40.018Z,99876.59
2018-12-24T00:24:20.312Z,99882.75
2018-12-24T00:27:00.977Z,99893.61
2018-12-24T00:29:45.100Z,99881.39
2018-12-24T00:32:14.245Z,99881.39
2018-12-24T00:34:45.665Z,99884.41
2018-12-24T00:37:22.333Z,99882.84
2018-12-24T00:39:58.190Z,99886.05
2018-12-24T00:42:33.563Z,99885.92
2018-12-24T00:45:08.983Z,99894.41
2018-12-24T00:47:44.199Z,99886.08
2018-12-24T00:50:15.614Z,99887.12
2018-12-24T00:52:52.492Z,99893.24
2018-12-24T00:55:36.600Z,99895.53
2018-12-24T00:58:37.644Z,99888.75
2018-12-24T01:01:04.586Z,99887.74
2018-12-24T01:03:36.077Z,99887.93
2018-12-24T01:06:14.334Z,99898.73
2018-12-24T01:08:52.480Z,99899.11
2018-12-24T01:11:30.156Z,99899.48
2018-12-24T01:14:02.834Z,99896.88
2018-12-24T01:16:34.627Z,99894.81
2018-12-24T01:19:13.454Z,99904.89
2018-12-24T01:21:54.632Z,99916.83
2018-12-24T01:24:28.380Z,99918.69
2018-12-24T01:27:09.189Z,99915.23
2018-12-24T01:29:44.863Z,99918.38
2018-12-24T01:32:23.474Z,99913.34
2018-12-24T01:34:59.128Z,99927.32
2018-12-24T01:37:36.598Z,99927.95
2018-12-24T01:40:08.123Z,99913.56
2018-12-24T01:42:47.098Z,99921.54
2018-12-24T01:45:25.632Z,99924.78
2018-12-24T01:47:57.868Z,99920.62
2018-12-24T01:50:29.212Z,99923.27
2018-12-24T01:53:00.511Z,99921.58
2018-12-24T01:55:34.637Z,99930.45
2018-12-24T01:58:08.847Z,99941.27
2018-12-24T02:00:42.666Z,99948.71
2018-12-24T02:03:14.222Z,99938.34
2018-12-24T02:05:46.942Z,99939.16
2018-12-24T02:08:22.662Z,99944.55
2018-12-24T02:10:55.818Z,99941.19
2018-12-24T02:13:27.247Z,99940.59
2018-12-24T02:16:05.996Z,99945.63
2018-12-24T02:18:37.427Z,99939.70
2018-12-24T02:21:09.094Z,99938.66
2018-12-24T02:23:40.851Z,99943.67
2018-12-24T02:26:12.528Z,99948.34
2018-12-24T02:28:49.877Z,99955.64
2018-12-24T02:31:21.296Z,99948.63
2018-12-24T02:33:52.884Z,99963.01
2018-12-24T02:36:28.690Z,99959.33
2018-12-24T02:39:00.460Z,99969.72
2018-12-24T02:41:33.379Z,99970.33
2018-12-24T02:44:09.021Z,99966.20
2018-12-24T02:46:43.338Z,99972.35
2018-12-24T02:49:18.832Z,99982.14
2018-12-24T02:51:47.813Z,99986.37
2018-12-24T02:54:19.354Z,99983.18
2018-12-24T02:56:50.674Z,99980.67
2018-12-24T02:59:22.168Z,99995.42
2018-12-24T03:01:56.067Z,99993.61
2018-12-24T03:04:27.501Z,99999.33
2018-12-24T03:07:01.178Z,99999.97
2018-12-24T03:09:33.799Z,100006.20
2018-12-24T03:12:05.074Z,100003.56
2018-12-24T03:14:36.645Z,100012.19
2018-12-24T03:17:09.716Z,100017.83
2018-12-24T03:19:47.155Z,100021.77
2018-12-24T03:22:19.328Z,100023.31
2018-12-24T03:24:54.107Z,100020.95
2018-12-24T03:27:28.564Z,100025.19
2018-12-24T03:30:03.209Z,100036.63
2018-12-24T03:32:37.945Z,100035.47
2018-12-24T03:35:09.066Z,100038.47
2018-12-24T03:37:43.615Z,100041.63
2018-12-24T03:40:17.014Z,100046.30
2018-12-24T03:43:46.294Z,100056.42
2018-12-24T03:46:20.920Z,100061.06
2018-12-24T03:48:52.240Z,100055.64
2018-12-24T03:51:27.595Z,100062.45
2018-12-24T03:53:58.986Z,100065.66
2018-12-24T03:56:35.162Z,100072.09
2018-12-24T03:59:10.499Z,100076.98
2018-12-24T04:01:45.813Z,100082.27
2018-12-24T04:04:20.783Z,100085.85
2018-12-24T04:06:58.501Z,100086.48
2018-12-24T04:10:10.757Z,100091.10
2018-12-24T04:12:42.774Z,100101.39
2018-12-24T04:15:24.808Z,100109.53
2018-12-24T04:18:14.467Z,100117.00
2018-12-24T04:20:37.127Z,100116.38
2018-12-24T04:23:11.478Z,100121.60
2018-12-24T04:25:45.046Z,100132.85
2018-12-24T04:28:16.744Z,100143.45
2018-12-24T04:30:52.397Z,100152.26
2018-12-24T04:33:31.774Z,100166.53
2018-12-24T04:36:03.938Z,100169.05
2018-12-24T04:38:35.897Z,100177.44
2018-12-24T04:41:07.438Z,100188.64
2018-12-24T04:43:43.569Z,100191.55
2018-12-24T04:46:17.770Z,100201.66
2018-12-24T04:49:07.624Z,100207.22
2018-12-24T04:51:40.693Z,100216.95
2018-12-24T04:54:14.673Z,100228.03
2018-12-24T04:56:45.276Z,100238.55
2018-12-24T04:59:17.388Z,100247.47
2018-12-24T05:01:51.907Z,100265.14
2018-12-24T05:04:23.412Z,100273.52
2018-12-24T05:06:59.221Z,100285.53
2018-12-24T05:09:37.718Z,100289.03
2018-12-24T05:12:11.516Z,100299.88
2018-12-24T05:14:42.867Z,100316.41
2018-12-24T05:17:14.352Z,100342.14
2018-12-24T05:19:45.817Z,100361.41
2018-12-24T05:22:21.264Z,100372.93
2018-12-24T05:24:52.988Z,100377.13
2018-12-24T05:27:29.146Z,100383.67
2018-12-24T05:30:04.868Z,100394.16
2018-12-24T05:32:37.837Z,100406.82
2018-12-24T05:35:10.319Z,100408.41
2018-12-24T05:37:45.059Z,100423.28
2018-12-24T05:40:21.771Z,100437.72
2018-12-24T05:42:59.580Z,100442.48
2018-12-24T05:45:28.186Z,100449.91
2018-12-24T05:48:11.674Z,100469.12
2018-12-24T05:50:43.110Z,100479.00
2018-12-24T05:53:14.750Z,100484.73
2018-12-24T05:55:53.534Z,100498.53
2018-12-24T05:58:28.015Z,100509.67
2018-12-24T06:00:59.355Z,100527.45
2018-12-24T06:03:31.545Z,100541.55
2018-12-24T06:06:04.695Z,100543.64
2018-12-24T06:08:36.056Z,100548.73
2018-12-24T06:11:12.525Z,100556.31
2018-12-24T06:13:57.761Z,100570.08
2018-12-24T06:16:27.469Z,100582.07
2018-12-24T06:19:44.830Z,100603.73
2018-12-24T06:22:16.595Z,100609.43
2018-12-24T06:24:48.546Z,100611.22
2018-12-24T06:27:20.665Z,100618.81
2018-12-24T06:29:51.569Z,100638.10
2018-12-24T06:32:23.469Z,100649.16
2018-12-24T06:34:56.092Z,100659.34
2018-12-24T06:37:26.932Z,100663.87
2018-12-24T06:40:01.663Z,100673.61
2018-12-24T06:42:34.029Z,100684.47
2018-12-24T06:45:06.306Z,100693.38
2018-12-24T06:47:37.779Z,100705.30
2018-12-24T06:50:11.181Z,100711.20
2018-12-24T06:52:43.362Z,100720.66
2018-12-24T06:55:14.279Z,100727.64
2018-12-24T06:57:45.597Z,100732.77
2018-12-24T07:00:19.519Z,100740.78
2018-12-24T07:02:50.666Z,100754.87
2018-12-24T07:05:33.417Z,100767.45
2018-12-24T07:08:06.496Z,100773.47
2018-12-24T07:10:37.378Z,100785.39
2018-12-24T07:13:09.664Z,100794.39
2018-12-24T07:15:43.930Z,100796.97
2018-12-24T07:18:15.014Z,100804.17
2018-12-24T07:20:46.489Z,100811.94
2018-12-24T07:23:19.964Z,100820.16
2018-12-24T07:25:52.480Z,100826.84
2018-12-24T07:28:26.046Z,100830.47
2018-12-24T07:31:00.105Z,100842.86
2018-12-24T07:33:33.479Z,100847.79
2018-12-24T07:36:15.783Z,100857.80
2018-12-24T07:38:46.157Z,100863.75
2018-12-24T07:41:18.493Z,100861.28
2018-12-24T07:43:49.367Z,100873.70
2018-12-24T07:46:20.251Z,100879.53
2018-12-24T07:48:57.657Z,100887.27
2018-12-24T07:51:36.917Z,100892.63
2018-12-24T07:54:12.207Z,100898.54
2018-12-24T07:56:49.951Z,100907.80
2018-12-24T07:59:24.040Z,100917.03
2018-12-24T08:01:58.098Z,100924.09
2018-12-24T08:04:30.786Z,100926.66
2018-12-24T08:07:06.634Z,100934.76
2018-12-24T08:09:46.297Z,100944.50
2018-12-24T08:12:23.652Z,100948.28
2018-12-24T08:14:57.284Z,100950.20
2018-12-24T08:17:33.331Z,100961.99
2018-12-24T08:20:06.079Z,100968.00
2018-12-24T08:22:36.822Z,100970.42
2018-12-24T08:25:07.740Z,100985.30
2018-12-24T08:27:42.499Z,100982.75
2018-12-24T08:30:22.421Z,100998.29
2018-12-24T08:32:55.727Z,101005.61
2018-12-24T08:35:26.570Z,101013.63
2018-12-24T08:37:57.598Z,101012.83
2018-12-24T08:40:32.015Z,101025.64
2018-12-24T08:43:02.762Z,101024.75
2018-12-24T08:45:40.151Z,101040.98
2018-12-24T08:48:10.989Z,101041.89
2018-12-24T08:50:44.638Z,101049.95
2018-12-24T08:53:26.051Z,101065.00
2018-12-24T08:56:03.454Z,101064.78
2018-12-24T08:58:38.705Z,101069.30
2018-12-24T09:01:11.776Z,101080.45
2018-12-24T09:03:49.431Z,101090.59
2018-12-24T09:06:20.251Z,101098.16
2018-12-24T09:08:54.023Z,101099.63
2018-12-24T09:11:27.228Z,101105.11
2018-12-24T09:14:00.347Z,101107.52
2018-12-24T09:16:39.406Z,101112.59
2018-12-24T09:19:16.033Z,101115.42
2018-12-24T09:21:47.043Z,101118.19
2018-12-24T09:24:26.193Z,101126.88
2018-12-24T09:26:56.948Z,101132.39
2018-12-24T09:29:29.487Z,101126.11
2018-12-24T09:32:05.616Z,101138.33
2018-12-24T09:34:42.516Z,101148.66
2018-12-24T09:37:13.276Z,101142.73
2018-12-24T09:39:46.904Z,101154.09
2018-12-24T09:42:19.199Z,101152.88
2018-12-24T09:44:58.759Z,101155.23
2018-12-24T09:47:27.197Z,101163.29
2018-12-24T09:50:12.309Z,101165.30
2018-12-24T09:53:20.513Z,101171.39
2018-12-24T09:55:55.589Z,101176.28
2018-12-24T09:58:28.180Z,101174.95
2018-12-24T10:01:02.806Z,101169.26
2018-12-24T10:03:44.931Z,101179.83
2018-12-24T10:06:29.421Z,101181.06
2018-12-24T10:09:02.489Z,101189.94
2018-12-24T10:11:41.231Z,101171.04
2018-12-24T10:14:22.378Z,101179.39
2018-12-24T10:17:00.637Z,101186.95
2018-12-24T10:19:55.726Z,101185.18
2018-12-24T10:22:38.262Z,101190.80
2018-12-24T10:25:23.081Z,101187.91
2018-12-24T10:27:57.838Z,101193.41
2018-12-24T10:30:43.440Z,101198.08
2018-12-24T10:33:19.935Z,101194.81
2018-12-24T10:36:37.928Z,101205.69
2018-12-24T10:39:22.256Z,101207.41
2018-12-24T10:41:57.341Z,101205.89
2018-12-24T10:44:32.778Z,101208.41
2018-12-24T10:47:07.270Z,101213.02
2018-12-24T10:49:49.707Z,101208.03
2018-12-24T10:52:37.723Z,101214.47
2018-12-24T10:55:16.795Z,101209.98
2018-12-24T10:57:51.646Z,101212.55
2018-12-24T11:00:25.712Z,101214.09
2018-12-24T11:03:00.436Z,101226.53
2018-12-24T11:05:43.191Z,101217.81
2018-12-24T11:08:22.074Z,101220.09
2018-12-24T11:10:58.425Z,101225.80
2018-12-24T11:13:39.569Z,101228.39
2018-12-24T11:16:12.280Z,101244.31
2018-12-24T11:18:45.271Z,101239.59
2018-12-24T11:21:18.481Z,101244.50
2018-12-24T11:23:59.020Z,101253.57
2018-12-24T11:27:02.222Z,101264.67
2018-12-24T11:29:43.292Z,101271.63
2018-12-24T11:32:14.892Z,101271.97
2018-12-24T11:34:54.358Z,101278.23
2018-12-24T11:37:40.533Z,101280.84
2018-12-24T11:40:17.817Z,101276.98
2018-12-24T11:42:55.104Z,101292.83
2018-12-24T11:48:08.285Z,101296.27
2018-12-24T11:51:18.229Z,101296.39
2018-12-24T11:53:58.269Z,101297.94
2018-12-24T11:56:33.158Z,101313.44
2018-12-24T11:59:12.459Z,101308.34
2018-12-24T12:01:49.274Z,101311.59
2018-12-24T12:04:40.424Z,101320.41
2018-12-24T12:07:11.667Z,101334.73
2018-12-24T12:09:45.406Z,101322.81
2018-12-24T12:12:18.432Z,101329.38
2018-12-24T12:14:49.287Z,101330.08
2018-12-24T12:17:23.322Z,101336.64
2018-12-24T12:19:58.450Z,101331.30
2018-12-24T12:22:33.174Z,101339.13
2018-12-24T12:25:08.547Z,101341.08
2018-12-24T12:27:42.882Z,101353.47
2018-12-24T12:30:18.435Z,101361.59
2018-12-24T12:32:50.911Z,101365.16
2018-12-24T12:35:24.082Z,101364.64
2018-12-24T12:37:56.448Z,101368.95
2018-12-24T12:40:27.297Z,101376.17
2018-12-24T12:43:09.318Z,101385.20
2018-12-24T12:45:58.310Z,101385.91
2018-12-24T12:48:39.700Z,101402.45
2018-12-24T12:51:17.031Z,101405.41
2018-12-24T12:54:03.080Z,101410.37
2018-12-24T12:56:46.417Z,101414.11
2018-12-24T12:59:20.644Z,101422.08
2018-12-24T13:02:00.617Z,101425.92
2018-12-24T13:04:41.876Z,101436.84
2018-12-24T13:07:16.597Z,101441.25
2018-12-24T13:09:54.854Z,101453.66
2018-12-24T13:12:42.236Z,101445.47
2018-12-24T13:15:15.383Z,101454.88
2018-12-24T13:17:56.514Z,101461.88
2018-12-24T13:20:30.769Z,101463.91
2018-12-24T13:23:04.355Z,101471.84
2018-12-24T13:25:49.429Z,101481.19
2018-12-24T13:28:25.261Z,101474.02
2018-12-24T13:31:19.810Z,101482.26
2018-12-24T13:34:25.440Z,101480.94
2018-12-24T13:37:00.544Z,101496.50
2018-12-24T13:39:37.508Z,101495.02
2018-12-24T13:42:24.516Z,101510.09
2018-12-24T13:45:02.621Z,101513.09
2018-12-24T13:47:38.202Z,101518.27
2018-12-24T13:53:22.046Z,101533.81
2018-12-24T13:56:03.959Z,101543.09
2018-12-24T13:58:45.488Z,101542.97
2018-12-24T14:01:25.704Z,101549.74
2018-12-24T14:03:56.738Z,101559.91
2018-12-24T14:06:38.126Z,101566.00
2018-12-24T14:09:38.905Z,101570.89
2018-12-24T14:12:33.234Z,101586.30
2018-12-24T14:15:02.765Z,101584.84
2018-12-24T14:17:52.658Z,101595.70
2018-12-24T14:20:40.405Z,101597.23
2018-12-24T14:23:04.188Z,101595.23
2018-12-24T14:25:46.148Z,101598.60
2018-12-24T14:28:19.952Z,101603.72
2018-12-24T14:31:10.394Z,101607.13
2018-12-24T14:33:44.535Z,101614.11
2018-12-24T14:36:24.719Z,101611.12
2018-12-24T14:38:55.755Z,101614.26
2018-12-24T14:41:33.254Z,101615.05
2018-12-24T14:44:04.155Z,101615.48
2018-12-24T14:47:01.459Z,101605.03
2018-12-24T14:50:03.460Z,101609.73
2018-12-24T14:53:10.863Z,101618.88
2018-12-24T14:56:53.992Z,101622.91
2018-12-24T14:59:34.463Z,101634.28
2018-12-24T15:02:17.549Z,101644.44
2018-12-24T15:05:00.406Z,101637.47
2018-12-24T15:07:28.600Z,101639.73
2018-12-24T15:10:26.536Z,101628.52
2018-12-24T15:13:04.966Z,101628.95
2018-12-24T15:19:00.572Z,101634.86
2018-12-24T15:21:29.517Z,101642.35
2018-12-24T15:24:26.715Z,101639.05
2018-12-24T15:27:04.780Z,101641.75
2018-12-24T15:29:38.767Z,101643.22
2018-12-24T15:32:40.935Z,101642.97
2018-12-24T15:38:27.909Z,101659.09
2018-12-24T15:41:17.096Z,101664.20
2018-12-24T15:44:01.698Z,101674.39
2018-12-24T15:46:54.369Z,101684.07
2018-12-24T15:50:30.012Z,101685.45
2018-12-24T15:52:08.388Z,101692.81
2018-12-24T15:58:17.416Z,101711.03
2018-12-24T16:01:04.085Z,101710.84
2018-12-24T16:04:01.571Z,101713.41
2018-12-24T16:06:34.052Z,101714.11
2018-12-24T16:09:29.627Z,101719.05
2018-12-24T16:12:19.649Z,101720.23
2018-12-24T16:14:54.409Z,101716.74
2018-12-24T16:17:32.090Z,101719.76
2018-12-24T16:23:11.266Z,101718.45
2018-12-24T16:25:44.204Z,101716.90
2018-12-24T16:28:20.854Z,101724.81
2018-12-24T16:31:02.886Z,101719.77
2018-12-24T16:33:47.955Z,101719.84
2018-12-24T16:36:22.780Z,101724.67
2018-12-24T16:39:00.449Z,101722.92
2018-12-24T16:41:41.345Z,101716.07
2018-12-24T16:44:22.014Z,101716.33
2018-12-24T16:47:15.475Z,101713.86
2018-12-24T16:49:52.530Z,101716.62
2018-12-24T16:52:35.309Z,101710.48
2018-12-24T16:55:17.622Z,101701.17
2018-12-24T16:58:05.757Z,101708.65
2018-12-24T17:00:43.050Z,101704.17
2018-12-24T17:03:49.406Z,101705.82
2018-12-24T17:06:29.120Z,101708.59
2018-12-24T17:09:11.379Z,101708.00
2018-12-24T17:11:53.668Z,101718.69
2018-12-24T17:14:33.731Z,101722.05
2018-12-24T17:17:07.818Z,101726.47
2018-12-24T17:19:39.715Z,101735.51
2018-12-24T17:22:11.706Z,101743.30
2018-12-24T17:24:43.948Z,101743.08
2018-12-24T17:27:36.272Z,101740.66
2018-12-24T17:30:11.281Z,101743.48
2018-12-24T17:32:47.202Z,101746.21
2018-12-24T17:35:33.994Z,101743.66
2018-12-24T17:38:08.374Z,101739.38
2018-12-24T17:40:59.430Z,101733.20
2018-12-24T17:43:46.728Z,101733.99
2018-12-24T17:46:17.755Z,101735.17
2018-12-24T17:48:52.170Z,101745.27
2018-12-24T17:51:26.259Z,101744.06
2018-12-24T17:54:37.860Z,101750.61
2018-12-24T17:57:15.115Z,101751.95
2018-12-24T17:59:52.960Z,101745.08
2018-12-24T18:02:26.487Z,101741.00
2018-12-24T18:05:26.751Z,101733.47
2018-12-24T18:07:58.881Z,101732.78
2018-12-24T18:10:40.121Z,101718.74
2018-12-24T18:13:19.692Z,101723.67
2018-12-24T18:16:00.935Z,101714.62
2018-12-24T18:18:44.340Z,101712.28
2018-12-24T18:21:24.929Z,101704.38
2018-12-24T18:24:03.315Z,101704.19
2018-12-24T18:26:54.105Z,101712.89
2018-12-24T18:29:44.113Z,101724.02
2018-12-24T18:32:22.872Z,101730.02
2018-12-24T18:35:09.781Z,101738.95
2018-12-24T18:37:45.679Z,101744.80
2018-12-24T18:40:24.767Z,101750.34
2018-12-24T18:43:00.160Z,101757.72
2018-12-24T18:45:43.625Z,101764.42
2018-12-24T18:48:56.044Z,101762.41
2018-12-24T18:51:31.841Z,101754.31
2018-12-24T18:54:05.634Z,101751.81
2018-12-24T18:57:20.434Z,101746.56
2018-12-24T18:59:36.742Z,101757.62
2018-12-24T19:02:12.511Z,101753.81
2018-12-24T19:05:07.051Z,101733.64
2018-12-24T19:07:30.546Z,101716.15
2018-12-24T19:10:12.946Z,101736.13
2018-12-24T19:12:50.056Z,101737.34
2018-12-24T19:15:36.606Z,101742.89
2018-12-24T19:18:25.025Z,101750.97
2018-12-24T19:20:58.727Z,101753.06
2018-12-24T19:23:38.333Z,101751.03
2018-12-24T19:26:43.183Z,101744.66
2018-12-24T19:29:28.235Z,101741.80
2018-12-24T19:32:33.711Z,101744.23
2018-12-24T19:35:22.587Z,101745.20
2018-12-24T19:37:55.624Z,101751.28
2018-12-24T19:40:38.143Z,101761.31
2018-12-24T19:43:15.711Z,101751.14
2018-12-24T19:45:53.697Z,101740.70
2018-12-24T19:52:25.231Z,101738.20
2018-12-24T19:54:33.610Z,101735.50
2018-12-24T19:57:21.233Z,101735.22
2018-12-24T20:00:08.986Z,101744.70
2018-12-24T20:03:13.063Z,101748.32
2018-12-24T20:08:53.871Z,101762.30
2018-12-24T20:11:32.322Z,101757.70
2018-12-24T20:15:46.440Z,101765.30
2018-12-24T20:16:51.533Z,101777.44
2018-12-24T20:19:22.484Z,101774.25
2018-12-24T20:22:08.269Z,101773.32
2018-12-24T20:24:54.151Z,101782.41
2018-12-24T20:27:43.500Z,101770.69
2018-12-24T20:30:11.167Z,101776.37
2018-12-24T20:33:06.216Z,101774.49
2018-12-24T20:35:54.327Z,101772.41
2018-12-24T20:38:37.230Z,101777.73
2018-12-24T20:41:44.662Z,101774.60
2018-12-24T20:45:07.084Z,101773.95
2018-12-24T20:47:29.327Z,101766.02
2018-12-24T20:50:02.439Z,101772.38
2018-12-24T20:53:12.682Z,101781.75
2018-12-24T20:56:03.245Z,101784.41
2018-12-24T20:58:49.169Z,101796.31
2018-12-24T21:02:05.380Z,101792.88
2018-12-24T21:05:21.889Z,101813.42
2018-12-24T21:08:29.373Z,101811.98
2018-12-24T21:11:36.875Z,101797.62
2018-12-24T21:14:24.305Z,101795.52
2018-12-24T21:17:19.107Z,101800.16
2018-12-24T21:20:59.103Z,101803.13
2018-12-24T21:23:47.512Z,101804.97
2018-12-24T21:26:35.136Z,101805.09
2018-12-24T21:29:35.276Z,101805.16
2018-12-24T21:32:21.717Z,101807.00
2018-12-24T21:35:05.081Z,101797.95
2018-12-24T21:40:52.061Z,101785.45
2018-12-24T21:44:02.811Z,101795.01
2018-12-24T21:46:47.748Z,101789.56
2018-12-24T21:56:29.218Z,101784.48
2018-12-24T21:59:25.888Z,101793.31
2018-12-24T22:02:48.027Z,101786.72
2018-12-24T22:05:38.348Z,101791.98
2018-12-24T22:08:14.734Z,101793.34
2018-12-24T22:11:49.698Z,101780.11
2018-12-24T22:14:01.939Z,101788.85
2018-12-24T22:17:11.098Z,101783.92
2018-12-24T22:19:46.317Z,101775.13
2018-12-24T22:22:17.511Z,101781.88
2018-12-24T22:25:04.890Z,101782.48
2018-12-24T22:27:57.494Z,101771.14
2018-12-24T22:31:19.736Z,101777.70
2018-12-24T22:34:08.743Z,101769.73
2018-12-24T22:36:53.711Z,101768.00
2018-12-24T22:39:38.756Z,101757.45
2018-12-24T22:42:17.287Z,101761.33
2018-12-24T22:45:09.458Z,101755.11
2018-12-24T22:47:58.718Z,101752.55
2018-12-24T22:50:41.591Z,101755.41
2018-12-24T22:54:20.253Z,101753.84
2018-12-24T22:56:25.381Z,101761.61
2018-12-24T22:58:56.453Z,101755.36
2018-12-24T23:04:39.289Z,101752.25
2018-12-24T23:05:08.723Z,101757.81
2018-12-24T23:07:27.432Z,101748.02
2018-12-24T23:10:01.875Z,101753.09
2018-12-24T23:12:42.807Z,101759.39
2018-12-24T23:16:00.021Z,101768.27
2018-12-24T23:18:49.321Z,101762.78
2018-12-24T23:24:52.473Z,101767.08
2018-12-24T23:27:19.167Z,101755.53
2018-12-24T23:29:52.380Z,101758.75
2018-12-24T23:32:46.991Z,101770.27
2018-12-24T23:37:11.902Z,101755.77
2018-12-24T23:38:19.034Z,101765.00
2018-12-24T23:40:58.573Z,101766.09
2018-12-24T23:43:48.725Z,101758.34
2018-12-24T23:46:34.601Z,101753.92
2018-12-24T23:49:05.371Z,101752.70
2018-12-24T23:51:41.267Z,101760.84
2018-12-24T23:54:22.108Z,101757.70
2018-12-24T23:56:58.488Z,101765.55
2018-12-24T23:59:30.795Z,101767.12
